Walli — FH9023 — position and weather

sailwx.info

Track history (hours):
 
Tides and Currents Weather Stations Pressure Air Temp Water Temp Dewpoint Dewpoint Depression Visibility Wind Speed Wind Dir Waves Ship Positions

Walli

Last reported at 2017-Aug-31 09:43 UTC. Time now 2017-Sep-21 01:42 UTC.
Position N 47°39' W 003°27'.
Warning: this ship's position is 20 days out of date.

Length 11 m.

Type: Sailing vessel. MMSI: 227817030.

Date/timePositionNaut miles runAvg speedWind from/ knotsBaromVisibWave heightAir tempDewpointWater temp
2017-Aug-31 09:43N 47°39' W 003°27'1 3.2
2017-Aug-31 09:30N 47°39' W 003°27'60 1.3
2017-Aug-29 10:48N 48°06' W 004°46'3 8.3
2017-Aug-29 10:23N 48°09' W 004°43'3 8.5
2017-Aug-29 10:00N 48°12' W 004°41'4 8.3
2017-Aug-29 09:31N 48°16' W 004°39'3 6.8
2017-Aug-29 09:01N 48°19' W 004°36'3 6.1
2017-Aug-29 08:31N 48°21' W 004°33'2 4.7
2017-Aug-29 08:00N 48°22' W 004°29'1 1.3
2017-Aug-29 07:29N 48°23' W 004°29'0 0.0
2017-Aug-29 06:59N 48°23' W 004°29'0 0.0
2017-Aug-28 21:44N 48°23' W 004°29'0 0.0
2017-Aug-28 21:29N 48°23' W 004°29'0 0.0
2017-Aug-28 20:59N 48°23' W 004°29'0 0.0
2017-Aug-28 20:29N 48°23' W 004°29'0 0.0
2017-Aug-28 19:59N 48°23' W 004°29'0 0.0
2017-Aug-28 19:29N 48°23' W 004°29'0 0.0
2017-Aug-28 18:59N 48°23' W 004°29'0 0.0
2017-Aug-28 18:29N 48°23' W 004°29'0 0.0
2017-Aug-28 17:59N 48°23' W 004°29'0 0.0
2017-Aug-28 17:29N 48°23' W 004°29'0 0.0
2017-Aug-28 16:59N 48°23' W 004°29'0 0.0
2017-Aug-26 16:02N 48°23' W 004°29'0 0.0
2017-Aug-26 15:59N 48°23' W 004°29'0 0.0
2017-Aug-26 13:13N 48°23' W 004°29'0 0.0
2017-Aug-26 13:00N 48°23' W 004°29'0 0.0
2017-Aug-26 12:30N 48°23' W 004°29'0 0.0
2017-Aug-26 11:39N 48°23' W 004°29'0 0.0
2017-Aug-26 11:27N 48°23' W 004°29'0 0.0
2017-Aug-25 16:29N 48°23' W 004°29'0 0.0
2017-Aug-25 15:57N 48°23' W 004°29'0 0.0
2017-Aug-25 14:02N 48°23' W 004°29'1 1.9
2017-Aug-25 13:30N 48°22' W 004°30'2 4.5
2017-Aug-25 13:00N 48°20' W 004°31'1 0.1
2017-Aug-24 21:15N 48°19' W 004°33'0 0.0
2017-Aug-24 18:04N 48°19' W 004°33'0 0.0
2017-Aug-24 17:58N 48°19' W 004°33'1 1.5
2017-Aug-24 17:30N 48°20' W 004°32'1 2.3
2017-Aug-24 17:00N 48°21' W 004°33'3 6.1
2017-Aug-24 16:30N 48°19' W 004°36'3 6.7
2017-Aug-24 16:00N 48°16' W 004°38'3 5.8
2017-Aug-24 15:30N 48°13' W 004°38'2 4.0
2017-Aug-24 14:59N 48°11' W 004°36'2 4.4
2017-Aug-24 14:26N 48°09' W 004°35'2 4.9
2017-Aug-24 13:58N 48°10' W 004°32'3 5.2
2017-Aug-24 13:21N 48°13' W 004°29'0 1.1
2017-Aug-24 12:58N 48°13' W 004°30'0 0.0
2017-Aug-24 11:53N 48°13' W 004°30'0 0.0
2017-Aug-24 10:53N 48°13' W 004°30'0 0.0
2017-Aug-22 17:45N 48°13' W 004°30'0 1.1
2017-Aug-22 17:31N 48°14' W 004°29'3 5.6
2017-Aug-22 16:58N 48°11' W 004°31'5 4.4
2017-Aug-22 15:51N 48°11' W 004°38'3 7.4
2017-Aug-22 15:30N 48°12' W 004°42'4 7.5
2017-Aug-22 15:01N 48°13' W 004°47'6 6.2
2017-Aug-22 13:58N 48°15' W 004°56'5 4.6
2017-Aug-22 12:58N 48°17' W 005°03'  
Track history (hours):
 
Tides and Currents Weather Stations Pressure Air Temp Water Temp Dewpoint Dewpoint Depression Visibility Wind Speed Wind Dir Waves Ship Positions

Walli

Last reported at 2017-Aug-31 09:43 UTC. Time now 2017-Sep-21 01:42 UTC.
Position N 47°39' W 003°27'.
Warning: this ship's position is 20 days out of date.

Length 11 m.

Type: Sailing vessel. MMSI: 227817030.

Date/timePositionNaut miles runAvg speedWind from/ knotsBaromVisibWave heightAir tempDewpointWater temp
2017-Aug-31 09:43N 47°39' W 003°27'1 3.2
2017-Aug-31 09:30N 47°39' W 003°27'60 1.3
2017-Aug-29 10:48N 48°06' W 004°46'3 8.3
2017-Aug-29 10:23N 48°09' W 004°43'3 8.5
2017-Aug-29 10:00N 48°12' W 004°41'4 8.3
2017-Aug-29 09:31N 48°16' W 004°39'3 6.8
2017-Aug-29 09:01N 48°19' W 004°36'3 6.1
2017-Aug-29 08:31N 48°21' W 004°33'2 4.7
2017-Aug-29 08:00N 48°22' W 004°29'1 1.3
2017-Aug-29 07:29N 48°23' W 004°29'0 0.0
2017-Aug-29 06:59N 48°23' W 004°29'0 0.0
2017-Aug-28 21:44N 48°23' W 004°29'0 0.0
2017-Aug-28 21:29N 48°23' W 004°29'0 0.0
2017-Aug-28 20:59N 48°23' W 004°29'0 0.0
2017-Aug-28 20:29N 48°23' W 004°29'0 0.0
2017-Aug-28 19:59N 48°23' W 004°29'0 0.0
2017-Aug-28 19:29N 48°23' W 004°29'0 0.0
2017-Aug-28 18:59N 48°23' W 004°29'0 0.0
2017-Aug-28 18:29N 48°23' W 004°29'0 0.0
2017-Aug-28 17:59N 48°23' W 004°29'0 0.0
2017-Aug-28 17:29N 48°23' W 004°29'0 0.0
2017-Aug-28 16:59N 48°23' W 004°29'0 0.0
2017-Aug-26 16:02N 48°23' W 004°29'0 0.0
2017-Aug-26 15:59N 48°23' W 004°29'0 0.0
2017-Aug-26 13:13N 48°23' W 004°29'0 0.0
2017-Aug-26 13:00N 48°23' W 004°29'0 0.0
2017-Aug-26 12:30N 48°23' W 004°29'0 0.0
2017-Aug-26 11:39N 48°23' W 004°29'0 0.0
2017-Aug-26 11:27N 48°23' W 004°29'0 0.0
2017-Aug-25 16:29N 48°23' W 004°29'0 0.0
2017-Aug-25 15:57N 48°23' W 004°29'0 0.0
2017-Aug-25 14:02N 48°23' W 004°29'1 1.9
2017-Aug-25 13:30N 48°22' W 004°30'2 4.5
2017-Aug-25 13:00N 48°20' W 004°31'1 0.1
2017-Aug-24 21:15N 48°19' W 004°33'0 0.0
2017-Aug-24 18:04N 48°19' W 004°33'0 0.0
2017-Aug-24 17:58N 48°19' W 004°33'1 1.5
2017-Aug-24 17:30N 48°20' W 004°32'1 2.3
2017-Aug-24 17:00N 48°21' W 004°33'3 6.1
2017-Aug-24 16:30N 48°19' W 004°36'3 6.7
2017-Aug-24 16:00N 48°16' W 004°38'3 5.8
2017-Aug-24 15:30N 48°13' W 004°38'2 4.0
2017-Aug-24 14:59N 48°11' W 004°36'2 4.4
2017-Aug-24 14:26N 48°09' W 004°35'2 4.9
2017-Aug-24 13:58N 48°10' W 004°32'3 5.2
2017-Aug-24 13:21N 48°13' W 004°29'0 1.1
2017-Aug-24 12:58N 48°13' W 004°30'0 0.0
2017-Aug-24 11:53N 48°13' W 004°30'0 0.0
2017-Aug-24 10:53N 48°13' W 004°30'0 0.0
2017-Aug-22 17:45N 48°13' W 004°30'0 1.1
2017-Aug-22 17:31N 48°14' W 004°29'3 5.6
2017-Aug-22 16:58N 48°11' W 004°31'5 4.4
2017-Aug-22 15:51N 48°11' W 004°38'3 7.4
2017-Aug-22 15:30N 48°12' W 004°42'4 7.5
2017-Aug-22 15:01N 48°13' W 004°47'6 6.2
2017-Aug-22 13:58N 48°15' W 004°56'5 4.6
2017-Aug-22 12:58N 48°17' W 005°03'  

Dump ship's entire track history